Terminal Aerodrome Forecast
Issued by NWS Sioux Falls, SD

Home | Current Version | Previous Version | Graphics & Text | Print | Product List | Glossary On
Versions: 1 2 3 4 5 6 7 8 9 10 11 12 13 14
000
FTUS43 KFSD 160520
TAFFSD
TAF
KFSD 160520Z 1606/1706 34013G19KT P6SM BKN020
     FM160800 33012KT P6SM SCT020
     FM161200 32009KT P6SM SCT035
     FM161900 29005KT P6SM SKC
     FM162300 VRB04KT P6SM FEW120=

USA.gov is the U.S. government's official web portal to all federal, state and local government web resources and services.